Time;durP1;ratioP1;P1;durP2;ratioP2;P2;SDS_P1;SDS_P2;PMS_P1;PMS_P2;Temp;Humidity;BMP_temperature;BMP_pressure;BME280_temperature;BME280_humidity;BME280_pressure;Samples;Min_cycle;Max_cycle;Signal;HPM_P1;HPM_P2
2021/12/31 00:00:14;;;;;;;7.40;5.90;;;;;;;7.54;88.73;99520.63;206864;1318;141619;-71
2021/12/31 00:05:37;;;;;;;8.40;5.80;;;;;;;7.58;89.37;99528.71;207175;1316;141421;-72
2021/12/31 00:10:40;;;;;;;8.90;5.20;;;;;;;7.60;89.41;99532.98;207131;1316;140428;-74
2021/12/31 00:15:42;;;;;;;6.80;5.50;;;;;;;7.64;88.94;99536.75;207494;1315;141925;-71
2021/12/31 00:20:46;;;;;;;6.80;6.10;;;;;;;7.72;89.68;99535.23;207054;1316;141243;-73
2021/12/31 00:25:49;;;;;;;9.10;5.50;;;;;;;7.79;89.68;99537.13;207136;1316;141697;-70
2021/12/31 00:30:54;;;;;;;12.00;7.10;;;;;;;7.85;89.71;99530.62;207653;1316;141587;-70
2021/12/31 00:35:58;;;;;;;11.70;6.90;;;;;;;7.90;90.08;99519.79;206920;1316;142970;-71
2021/12/31 00:41:05;;;;;;;9.70;7.00;;;;;;;7.93;89.60;99511.91;206912;1315;141683;-67
2021/12/31 00:46:08;;;;;;;8.90;6.60;;;;;;;7.96;89.56;99518.23;208035;1318;141166;-70
2021/12/31 00:51:14;;;;;;;8.10;7.20;;;;;;;8.01;89.82;99526.50;206985;1316;140796;-73
2021/12/31 00:56:17;;;;;;;10.00;8.80;;;;;;;8.06;89.83;99522.92;208003;1315;140433;-77
2021/12/31 01:01:22;;;;;;;15.30;13.80;;;;;;;8.10;89.79;99524.47;206722;1316;140858;-74
2021/12/31 01:06:41;;;;;;;12.10;10.90;;;;;;;8.11;89.83;99528.55;206809;1318;142272;-75
2021/12/31 01:11:47;;;;;;;13.40;9.10;;;;;;;8.13;89.88;99534.48;209304;1315;140439;-76
2021/12/31 01:17:45;;;;;;;17.10;12.20;;;;;;;8.19;89.65;99533.64;208467;1318;141245;-73
2021/12/31 01:22:41;;;;;;;15.50;12.30;;;;;;;8.23;89.65;99537.96;208391;1318;141320;-72
2021/12/31 01:27:59;;;;;;;13.90;10.00;;;;;;;8.29;89.65;99539.25;208630;1318;142349;-71
2021/12/31 01:33:31;;;;;;;14.70;11.60;;;;;;;8.34;89.46;99540.02;209420;1312;142186;-73
2021/12/31 01:38:35;;;;;;;17.20;13.30;;;;;;;8.37;89.63;99546.27;209066;1316;161788;-73
2021/12/31 01:44:26;;;;;;;16.50;11.50;;;;;;;8.40;89.41;99547.19;208155;1313;140899;-75
2021/12/31 01:49:36;;;;;;;14.00;11.60;;;;;;;8.39;88.93;99545.00;208187;1319;142154;-70
2021/12/31 01:54:39;;;;;;;10.20;7.90;;;;;;;8.38;89.48;99549.42;207998;1318;140876;-72
2021/12/31 01:59:54;;;;;;;11.40;8.70;;;;;;;8.36;89.31;99549.33;208236;1318;141572;-74
2021/12/31 02:04:58;;;;;;;9.70;8.00;;;;;;;8.39;89.30;99555.38;207434;1316;141478;-70
2021/12/31 02:10:19;;;;;;;10.40;9.30;;;;;;;8.39;89.32;99558.96;208068;1316;140802;-71
2021/12/31 02:15:25;;;;;;;14.50;10.70;;;;;;;8.39;89.61;99567.26;207025;1316;140671;-73
2021/12/31 02:20:54;;;;;;;14.70;11.20;;;;;;;8.42;89.77;99568.36;206858;1315;142089;-72
2021/12/31 02:26:13;;;;;;;;;;;;;;;;;;;;;
2021/12/31 02:31:22;;;;;;;14.40;9.60;;;;;;;8.45;89.76;99561.72;206890;1316;142636;-73
2021/12/31 02:36:24;;;;;;;14.30;9.50;;;;;;;8.48;90.34;99556.09;208207;1317;141539;-71
2021/12/31 02:41:29;;;;;;;11.10;9.00;;;;;;;8.55;89.93;99555.83;207001;1316;142028;-75
2021/12/31 02:46:32;;;;;;;12.70;9.70;;;;;;;8.53;90.04;99559.29;207084;1315;141190;-72
2021/12/31 02:51:37;;;;;;;15.00;12.30;;;;;;;8.52;89.96;99566.12;207444;1317;142319;-79
2021/12/31 02:56:54;;;;;;;12.50;10.30;;;;;;;8.57;90.24;99574.30;207474;1315;142343;-77
2021/12/31 03:02:03;;;;;;;;;;;;;;;8.60;90.29;99580.98;206822;1315;140414;-77
2021/12/31 03:07:18;;;;;;;16.10;10.70;;;;;;;8.60;90.27;99577.48;209230;1316;125966;-72
2021/12/31 03:12:22;;;;;;;11.40;9.60;;;;;;;8.64;90.15;99584.80;206783;1316;141894;-71
2021/12/31 03:17:25;;;;;;;10.50;8.50;;;;;;;8.66;90.13;99585.66;207869;1316;143821;-73
2021/12/31 03:22:28;;;;;;;13.90;10.80;;;;;;;8.65;90.07;99567.89;207613;1318;140334;-70
2021/12/31 03:27:33;;;;;;;16.30;10.80;;;;;;;8.62;89.95;99557.83;207161;1318;141946;-70
2021/12/31 03:32:35;;;;;;;13.70;11.10;;;;;;;8.64;90.43;99536.39;206594;1317;164411;-70
2021/12/31 03:37:37;;;;;;;15.40;11.50;;;;;;;8.67;90.26;99534.83;207826;1319;141612;-72
2021/12/31 03:42:40;;;;;;;13.30;10.60;;;;;;;8.69;90.09;99543.96;206912;1316;142098;-70
2021/12/31 03:47:43;;;;;;;15.50;11.30;;;;;;;8.71;90.09;99550.19;209161;1319;141617;-72
2021/12/31 03:52:46;;;;;;;16.50;11.90;;;;;;;8.71;90.32;99557.10;209143;1316;140916;-71
2021/12/31 03:57:49;;;;;;;19.60;13.50;;;;;;;8.74;90.05;99543.40;207024;1315;163029;-71
2021/12/31 04:02:51;;;;;;;11.50;8.80;;;;;;;8.77;89.88;99544.30;209219;1317;142132;-72
2021/12/31 04:07:55;;;;;;;13.10;11.50;;;;;;;8.75;89.98;99544.83;207279;1318;141531;-71
2021/12/31 04:13:00;;;;;;;11.30;9.30;;;;;;;8.76;90.03;99558.98;207149;1318;141684;-68
2021/12/31 04:18:03;;;;;;;13.80;10.70;;;;;;;8.81;90.06;99566.27;206902;1316;142761;-71
2021/12/31 04:23:14;;;;;;;13.30;10.10;;;;;;;8.85;90.39;99562.87;207565;1316;141982;-72
2021/12/31 04:28:18;;;;;;;15.20;10.70;;;;;;;8.84;90.33;99555.36;207135;1316;140609;-72
2021/12/31 04:33:22;;;;;;;15.10;9.90;;;;;;;8.83;90.21;99549.00;207114;1316;142754;-72
2021/12/31 04:38:25;;;;;;;15.00;11.90;;;;;;;8.87;90.58;99556.91;207877;1316;140663;-71
2021/12/31 04:43:29;;;;;;;11.70;9.90;;;;;;;8.91;90.52;99553.07;207069;1318;140189;-69
2021/12/31 04:48:37;;;;;;;14.90;11.30;;;;;;;8.94;90.54;99553.31;207433;1318;139695;-72
2021/12/31 04:53:54;;;;;;;;;;;;;;;;;;;;;
2021/12/31 04:58:58;;;;;;;14.80;11.80;;;;;;;8.97;90.43;99549.55;207043;1317;140290;-72
2021/12/31 05:04:05;;;;;;;13.80;10.40;;;;;;;8.95;90.58;99544.83;206939;1318;140075;-72
2021/12/31 05:09:31;;;;;;;12.80;10.60;;;;;;;8.96;90.39;99546.40;207256;1316;140028;-71
2021/12/31 05:14:36;;;;;;;10.50;9.20;;;;;;;9.02;90.48;99552.57;208213;1316;142795;-72
2021/12/31 05:19:43;;;;;;;10.00;8.60;;;;;;;9.03;90.48;99551.00;207741;1315;140666;-72
2021/12/31 05:24:46;;;;;;;9.30;7.00;;;;;;;9.05;90.49;99553.17;207216;1315;139984;-72
2021/12/31 05:30:10;;;;;;;10.30;7.30;;;;;;;9.07;90.42;99545.46;208119;1315;140301;-70
2021/12/31 05:35:15;;;;;;;9.40;7.00;;;;;;;9.10;90.74;99546.02;208138;1316;141130;-70
2021/12/31 05:40:21;;;;;;;8.70;7.30;;;;;;;9.13;90.17;99546.97;208718;1316;142020;-72
2021/12/31 05:45:29;;;;;;;8.10;6.60;;;;;;;9.16;90.36;99553.48;208007;1317;141219;-72
2021/12/31 05:50:53;;;;;;;9.20;6.90;;;;;;;9.15;90.29;99551.48;208873;1316;140512;-72
2021/12/31 05:55:56;;;;;;;11.00;9.90;;;;;;;9.14;90.23;99554.36;206721;1318;3790053;-73
2021/12/31 06:00:59;;;;;;;8.90;6.80;;;;;;;9.21;90.22;99552.78;209325;1319;141130;-73
2021/12/31 06:06:02;;;;;;;5.60;5.00;;;;;;;9.30;90.33;99550.81;207439;1317;141038;-69
2021/12/31 06:11:07;;;;;;;8.50;7.70;;;;;;;9.31;90.39;99544.57;207758;1316;140278;-73
2021/12/31 06:16:12;;;;;;;4.60;4.10;;;;;;;9.34;90.38;99540.18;208668;1318;140613;-73
2021/12/31 06:21:18;;;;;;;4.30;3.90;;;;;;;9.36;90.47;99543.67;208163;1316;140177;-72
2021/12/31 06:26:21;;;;;;;5.10;4.50;;;;;;;9.34;90.39;99546.92;207630;1318;139650;-72
2021/12/31 06:31:24;;;;;;;5.10;4.60;;;;;;;9.36;90.58;99549.48;207811;1316;141015;-71
2021/12/31 06:36:26;;;;;;;4.00;3.30;;;;;;;9.37;90.40;99550.89;207501;1316;239786;-68
2021/12/31 06:41:30;;;;;;;4.00;3.70;;;;;;;9.37;90.65;99549.14;207491;1316;141611;-72
2021/12/31 06:46:33;;;;;;;3.80;3.40;;;;;;;9.37;90.81;99557.16;207100;1315;140688;-72
2021/12/31 06:51:36;;;;;;;5.90;3.30;;;;;;;9.38;90.58;99562.41;207813;1316;140553;-73
2021/12/31 06:56:40;;;;;;;3.50;3.20;;;;;;;9.42;90.67;99564.36;207308;1316;140945;-72
2021/12/31 07:01:46;;;;;;;4.00;3.70;;;;;;;9.44;90.90;99564.52;207896;1317;140819;-72
2021/12/31 07:06:51;;;;;;;3.60;3.00;;;;;;;9.44;90.60;99569.20;207293;1317;140618;-72
2021/12/31 07:12:02;;;;;;;3.50;3.20;;;;;;;9.47;90.81;99570.39;206943;1316;142267;-68
2021/12/31 07:17:05;;;;;;;3.60;3.30;;;;;;;9.49;90.75;99574.19;207085;1316;140997;-72
2021/12/31 07:22:08;;;;;;;5.30;4.70;;;;;;;9.48;90.97;99573.54;207828;1316;140518;-70
2021/12/31 07:27:19;;;;;;;7.60;6.90;;;;;;;9.49;91.06;99570.14;206976;1315;140093;-73
2021/12/31 07:32:22;;;;;;;6.40;5.80;;;;;;;9.52;91.15;99573.89;207741;1316;140307;-71
2021/12/31 07:37:27;;;;;;;6.10;5.10;;;;;;;9.53;90.99;99571.35;208307;1316;140190;-72
2021/12/31 07:42:30;;;;;;;7.70;7.00;;;;;;;9.56;91.05;99574.66;208238;1317;140334;-71
2021/12/31 07:47:38;;;;;;;6.20;5.60;;;;;;;9.59;90.98;99579.27;208212;1316;140866;-71
2021/12/31 07:52:46;;;;;;;8.10;7.30;;;;;;;9.65;91.18;99584.00;208956;1315;140847;-72
2021/12/31 07:57:49;;;;;;;8.10;7.00;;;;;;;9.67;90.97;99591.13;208793;1316;141609;-71
2021/12/31 08:02:58;;;;;;;7.60;5.80;;;;;;;9.71;90.84;99590.83;209259;1316;141241;-70
2021/12/31 08:08:04;;;;;;;10.70;8.90;;;;;;;9.73;90.87;99597.42;207893;1316;141666;-70
2021/12/31 08:13:08;;;;;;;8.20;7.10;;;;;;;9.75;90.97;99595.88;208185;1313;142325;-71
2021/12/31 08:18:13;;;;;;;7.80;7.00;;;;;;;9.79;90.98;99596.31;208061;1315;141978;-67
2021/12/31 08:23:21;;;;;;;6.90;6.00;;;;;;;9.83;90.89;99598.20;207802;1317;141079;-71
2021/12/31 08:28:26;;;;;;;6.90;6.30;;;;;;;9.87;91.06;99600.27;207265;1316;140394;-71
2021/12/31 08:33:30;;;;;;;7.00;6.40;;;;;;;9.90;91.29;99600.86;207315;1316;140978;-69
2021/12/31 08:38:36;;;;;;;4.20;3.80;;;;;;;9.90;90.96;99605.61;207314;1316;140436;-70
2021/12/31 08:43:40;;;;;;;5.90;5.30;;;;;;;9.92;91.10;99608.41;207052;1314;140851;-69
2021/12/31 08:48:43;;;;;;;8.00;5.80;;;;;;;9.94;91.05;99613.05;207033;1317;140404;-70
2021/12/31 08:53:46;;;;;;;5.40;5.00;;;;;;;9.93;90.95;99610.10;207818;1316;140719;-70
2021/12/31 08:58:50;;;;;;;4.90;4.30;;;;;;;9.95;91.02;99615.89;207574;1316;140824;-70
2021/12/31 09:03:54;;;;;;;7.20;6.60;;;;;;;9.98;91.25;99615.48;206832;1316;140214;-71
2021/12/31 09:09:03;;;;;;;6.80;6.20;;;;;;;10.03;91.28;99617.56;207704;1316;140591;-70
2021/12/31 09:14:07;;;;;;;7.70;6.90;;;;;;;10.12;91.18;99614.65;207570;1316;142534;-70
2021/12/31 09:19:12;;;;;;;8.20;7.40;;;;;;;10.16;91.11;99617.66;207293;1315;140729;-71
2021/12/31 09:24:15;;;;;;;8.70;7.80;;;;;;;10.18;91.04;99616.64;207700;1316;141018;-71
2021/12/31 09:29:23;;;;;;;10.40;8.60;;;;;;;10.18;90.92;99619.21;208430;1315;140809;-72
2021/12/31 09:34:28;;;;;;;9.10;6.90;;;;;;;10.17;90.81;99621.48;207428;1317;140600;-72
2021/12/31 09:39:31;;;;;;;7.20;6.50;;;;;;;10.15;90.67;99624.27;207485;1318;142134;-69
2021/12/31 09:44:36;;;;;;;11.80;7.10;;;;;;;10.12;90.66;99626.86;209021;1315;140391;-72
2021/12/31 09:49:40;;;;;;;8.50;7.00;;;;;;;10.14;90.84;99625.39;208012;1317;140399;-71
2021/12/31 09:54:50;;;;;;;11.10;7.70;;;;;;;10.17;90.82;99623.49;206980;1317;140303;-71
2021/12/31 10:00:00;;;;;;;10.80;8.70;;;;;;;10.18;90.64;99616.08;208838;1318;141662;-73
2021/12/31 10:05:04;;;;;;;8.00;7.20;;;;;;;10.15;90.69;99610.45;208923;1316;140162;-72
2021/12/31 10:10:13;;;;;;;7.30;6.50;;;;;;;10.15;90.61;99608.86;208676;1316;141704;-72
2021/12/31 10:15:18;;;;;;;8.60;7.30;;;;;;;10.15;90.55;99601.81;208850;1316;140839;-72
2021/12/31 10:20:23;;;;;;;8.00;7.00;;;;;;;10.17;90.61;99602.84;208059;1318;140470;-72
2021/12/31 10:25:29;;;;;;;8.10;6.20;;;;;;;10.23;90.51;99607.63;207900;1315;141471;-72
2021/12/31 10:30:32;;;;;;;10.60;8.30;;;;;;;10.29;90.62;99602.90;207528;1316;142062;-72
2021/12/31 10:35:39;;;;;;;6.90;6.20;;;;;;;10.35;90.42;99603.55;207008;1316;140956;-66
2021/12/31 10:40:44;;;;;;;10.90;8.20;;;;;;;10.37;90.52;99599.50;207127;1317;142016;-72
2021/12/31 10:46:08;;;;;;;10.10;9.00;;;;;;;10.39;90.32;99597.56;207601;1318;141135;-71
2021/12/31 10:51:14;;;;;;;10.40;8.20;;;;;;;10.43;90.45;99599.91;206991;1317;141652;-70
2021/12/31 10:56:18;;;;;;;8.50;7.70;;;;;;;10.45;90.53;99589.05;206666;1317;141968;-71
2021/12/31 11:01:21;;;;;;;6.80;6.00;;;;;;;10.49;90.28;99574.92;207798;1316;140953;-71
2021/12/31 11:06:25;;;;;;;6.50;5.90;;;;;;;10.48;90.38;99571.98;208457;1315;141074;-71
2021/12/31 11:11:29;;;;;;;9.50;7.20;;;;;;;10.51;90.40;99568.28;206836;1316;143299;-70
2021/12/31 11:16:37;;;;;;;6.90;5.80;;;;;;;10.54;90.35;99575.51;208242;1316;141172;-72
2021/12/31 11:21:43;;;;;;;8.10;6.70;;;;;;;10.57;90.29;99568.06;207577;1317;142670;-72
2021/12/31 11:26:47;;;;;;;7.30;5.70;;;;;;;10.61;90.00;99562.69;206939;1316;142181;-71
2021/12/31 11:31:50;;;;;;;6.60;5.40;;;;;;;10.61;89.99;99572.21;207285;1316;143449;-71
2021/12/31 11:36:54;;;;;;;6.50;5.90;;;;;;;10.56;90.05;99567.64;208060;1317;140351;-72
2021/12/31 11:42:11;;;;;;;8.90;5.90;;;;;;;10.53;89.83;99570.04;207512;1317;141425;-72
2021/12/31 11:47:18;;;;;;;;;;;;;;;10.50;89.87;99562.42;209050;1317;140659;-72
2021/12/31 11:52:24;;;;;;;7.30;5.30;;;;;;;10.49;90.12;99556.96;208921;1316;127402;-71
2021/12/31 11:57:29;;;;;;;6.60;6.00;;;;;;;10.52;89.98;99551.48;207189;1316;142421;-70
2021/12/31 12:02:39;;;;;;;8.20;6.00;;;;;;;10.48;89.88;99544.58;209479;1316;141985;-72
2021/12/31 12:07:52;;;;;;;6.90;5.10;;;;;;;10.50;89.97;99540.46;209475;1320;140312;-72
2021/12/31 12:13:20;;;;;;;6.20;4.60;;;;;;;10.50;89.78;99531.56;208398;1316;142162;-73
2021/12/31 12:19:10;;;;;;;6.80;5.10;;;;;;;10.49;89.57;99538.42;208900;1317;142214;-73
2021/12/31 12:24:25;;;;;;;6.60;5.20;;;;;;;10.47;89.54;99536.36;208404;1316;140696;-73
2021/12/31 12:29:29;;;;;;;8.90;4.80;;;;;;;10.46;89.36;99531.96;207737;1316;141097;-72
2021/12/31 12:34:34;;;;;;;6.10;4.20;;;;;;;10.44;89.55;99518.60;207742;1316;143260;-73
2021/12/31 12:39:37;;;;;;;6.70;4.80;;;;;;;10.49;89.60;99526.63;207116;1317;142492;-73
2021/12/31 12:45:05;;;;;;;8.30;5.40;;;;;;;10.50;89.52;99521.33;207757;1316;140741;-73
2021/12/31 12:50:13;;;;;;;6.60;4.60;;;;;;;10.51;89.57;99514.52;208075;1316;141236;-74
2021/12/31 12:55:17;;;;;;;6.00;5.00;;;;;;;10.54;89.53;99507.90;207495;1316;140673;-73
2021/12/31 13:00:56;;;;;;;7.40;6.40;;;;;;;10.56;89.51;99508.42;206881;1316;140110;-72
2021/12/31 13:06:05;;;;;;;5.50;4.70;;;;;;;10.59;89.67;99508.37;207142;1318;140955;-74
2021/12/31 13:11:16;;;;;;;6.00;4.90;;;;;;;10.64;89.53;99511.20;206820;1319;221917;-74
2021/12/31 13:16:19;;;;;;;7.20;4.80;;;;;;;10.66;89.45;99513.52;207038;1316;141059;-72
2021/12/31 13:21:24;;;;;;;6.60;5.00;;;;;;;10.67;89.10;99516.73;207827;1316;140813;-74
2021/12/31 13:26:33;;;;;;;9.00;5.30;;;;;;;10.67;89.23;99526.02;207021;1316;141333;-75
2021/12/31 13:31:44;;;;;;;8.10;5.60;;;;;;;10.65;89.14;99530.94;206629;1318;141519;-73
2021/12/31 13:36:59;;;;;;;6.10;5.00;;;;;;;10.66;89.18;99527.48;207294;1317;141384;-72
2021/12/31 13:42:19;;;;;;;8.70;4.60;;;;;;;10.65;89.10;99525.00;207773;1316;142817;-73
2021/12/31 13:47:39;;;;;;;6.30;3.70;;;;;;;10.62;88.89;99525.81;206977;1316;140240;-73
2021/12/31 13:53:02;;;;;;;6.20;5.20;;;;;;;10.54;88.77;99519.80;207733;1316;612487;-80
2021/12/31 13:58:09;;;;;;;6.60;4.90;;;;;;;10.53;89.10;99517.17;206883;1316;141030;-73
2021/12/31 14:03:27;;;;;;;6.10;4.80;;;;;;;10.53;89.03;99524.20;207288;1316;140391;-75
2021/12/31 14:13:48;;;;;;;9.30;4.90;;;;;;;10.51;88.65;99527.52;209522;1315;161201;-75
2021/12/31 14:18:55;;;;;;;5.10;3.40;;;;;;;10.51;88.67;99525.60;208865;1317;141986;-74
2021/12/31 14:24:05;;;;;;;8.20;4.50;;;;;;;10.52;88.44;99527.42;209324;1314;140659;-73
2021/12/31 14:29:17;;;;;;;7.40;4.30;;;;;;;10.52;88.40;99527.82;207142;1314;140251;-71
2021/12/31 14:34:27;;;;;;;4.10;2.90;;;;;;;10.56;88.49;99529.59;207301;1316;140848;-73
2021/12/31 14:39:37;;;;;;;6.90;3.10;;;;;;;10.55;88.34;99524.29;208384;1316;140745;-78
2021/12/31 14:44:44;;;;;;;4.00;3.50;;;;;;;10.53;88.29;99524.15;208014;1316;140945;-73
2021/12/31 14:49:48;;;;;;;5.50;3.60;;;;;;;10.51;88.36;99525.17;206748;1318;140469;-70
2021/12/31 14:54:52;;;;;;;8.80;4.10;;;;;;;10.48;88.19;99513.77;207094;1316;141482;-71
2021/12/31 14:59:58;;;;;;;4.90;3.50;;;;;;;10.48;88.28;99515.64;208270;1316;140641;-74
2021/12/31 15:05:06;;;;;;;6.30;3.20;;;;;;;10.52;88.22;99516.35;206946;1316;141351;-70
2021/12/31 15:10:13;;;;;;;4.10;3.70;;;;;;;10.55;88.26;99506.39;206817;1317;140564;-73
2021/12/31 15:15:20;;;;;;;5.80;3.80;;;;;;;10.57;88.09;99504.19;207540;1316;140990;-74
2021/12/31 15:20:29;;;;;;;7.00;4.40;;;;;;;10.56;88.02;99497.46;207631;1316;141255;-74
2021/12/31 15:25:42;;;;;;;8.20;4.80;;;;;;;10.57;87.86;99491.44;207161;1318;236802;-77
2021/12/31 15:30:58;;;;;;;11.90;5.00;;;;;;;10.57;87.85;99483.61;207649;1316;142437;-69
2021/12/31 15:36:08;;;;;;;10.20;3.80;;;;;;;10.55;87.68;99485.70;206984;1316;140336;-71
2021/12/31 15:41:14;;;;;;;6.00;4.30;;;;;;;10.54;87.61;99480.09;207406;1316;140928;-72
2021/12/31 15:46:19;;;;;;;6.30;4.40;;;;;;;10.58;87.60;99481.86;206876;1316;141491;-76
2021/12/31 15:51:42;;;;;;;6.50;4.20;;;;;;;10.56;87.55;99480.45;208795;1316;142548;-72
2021/12/31 15:56:51;;;;;;;6.10;4.00;;;;;;;10.54;87.33;99483.50;207186;1316;139732;-72
2021/12/31 16:02:06;;;;;;;7.10;3.50;;;;;;;10.54;87.26;99483.66;206742;1316;142104;-71
2021/12/31 16:07:18;;;;;;;4.40;3.60;;;;;;;10.55;87.13;99483.24;208854;1312;142392;-73
2021/12/31 16:12:24;;;;;;;10.90;5.70;;;;;;;10.57;87.10;99478.17;209439;1316;141870;-75
2021/12/31 16:17:46;;;;;;;6.30;4.60;;;;;;;10.58;86.90;99470.04;208588;1317;141841;-75
2021/12/31 16:22:49;;;;;;;6.20;3.20;;;;;;;10.61;86.79;99467.69;209292;1316;141757;-72
2021/12/31 16:27:55;;;;;;;6.60;4.00;;;;;;;10.62;86.64;99463.55;209373;1316;143747;-72
2021/12/31 16:32:59;;;;;;;7.80;4.20;;;;;;;10.62;86.44;99465.20;208695;1316;141414;-71
2021/12/31 16:38:06;;;;;;;5.00;3.60;;;;;;;10.67;86.37;99463.73;208125;1318;226060;-71
2021/12/31 16:43:12;;;;;;;6.70;4.20;;;;;;;10.72;86.48;99468.06;208290;1317;141441;-75
2021/12/31 16:48:20;;;;;;;8.80;3.80;;;;;;;10.72;86.35;99466.46;207399;1316;140685;-77
2021/12/31 16:53:24;;;;;;;;;;;;;;;10.68;86.10;99465.37;207775;1316;141380;-78
2021/12/31 16:58:29;;;;;;;7.50;4.80;;;;;;;10.65;86.14;99462.05;207599;1316;128842;-79
2021/12/31 17:03:33;;;;;;;6.40;3.30;;;;;;;10.66;86.08;99455.34;206972;1316;141562;-78
2021/12/31 17:08:35;;;;;;;7.50;4.20;;;;;;;10.63;86.00;99451.10;206982;1317;141696;-77
2021/12/31 17:13:38;;;;;;;10.20;4.40;;;;;;;10.63;85.99;99444.86;207097;1316;142414;-79
2021/12/31 17:18:54;;;;;;;6.50;4.00;;;;;;;10.62;85.95;99443.34;207198;1316;141461;-78
2021/12/31 17:24:03;;;;;;;8.40;4.50;;;;;;;10.63;85.99;99438.98;207229;1316;140815;-78
2021/12/31 17:29:05;;;;;;;5.20;4.20;;;;;;;10.62;85.82;99430.02;206955;1316;141446;-77
2021/12/31 17:34:07;;;;;;;10.00;4.60;;;;;;;10.61;85.79;99429.89;206920;1316;141551;-73
2021/12/31 17:39:30;;;;;;;6.20;4.40;;;;;;;10.62;85.52;99436.85;206887;1315;142709;-72
2021/12/31 17:44:34;;;;;;;5.10;3.60;;;;;;;10.63;85.68;99427.11;207368;1318;141361;-71
2021/12/31 17:49:36;;;;;;;3.70;2.80;;;;;;;10.63;85.42;99425.39;207293;1316;140198;-77
2021/12/31 17:54:38;;;;;;;7.10;4.90;;;;;;;10.63;85.29;99417.51;208226;1316;165390;-71
2021/12/31 17:59:45;;;;;;;6.10;4.10;;;;;;;10.68;85.43;99417.69;206907;1317;141836;-77
2021/12/31 18:04:48;;;;;;;5.80;3.60;;;;;;;10.69;85.44;99418.84;208570;1316;141149;-76
2021/12/31 18:09:51;;;;;;;9.70;4.60;;;;;;;10.70;85.18;99417.08;208137;1316;141977;-75
2021/12/31 18:14:54;;;;;;;7.40;5.00;;;;;;;10.70;84.92;99416.60;209257;1316;142586;-76
2021/12/31 18:19:56;;;;;;;8.70;4.60;;;;;;;10.73;84.98;99421.38;208544;1315;143178;-78
2021/12/31 18:24:59;;;;;;;5.50;4.00;;;;;;;10.76;84.96;99422.66;207280;1315;141395;-77
2021/12/31 18:30:05;;;;;;;7.10;4.70;;;;;;;10.76;84.84;99418.27;207921;1315;140266;-82
2021/12/31 18:35:08;;;;;;;10.40;5.60;;;;;;;10.75;84.77;99422.20;207501;1316;142793;-79
2021/12/31 18:40:11;;;;;;;8.40;4.10;;;;;;;10.77;84.89;99419.69;207853;1316;141900;-81
2021/12/31 18:45:18;;;;;;;7.30;4.50;;;;;;;10.80;84.78;99410.23;207137;1315;142711;-80
2021/12/31 18:50:22;;;;;;;8.90;4.50;;;;;;;10.82;84.52;99416.78;207233;1318;140930;-78
2021/12/31 18:55:26;;;;;;;6.20;3.80;;;;;;;10.83;84.35;99410.81;206944;1318;162426;-77
2021/12/31 19:00:30;;;;;;;4.80;3.10;;;;;;;10.80;84.50;99411.73;207677;1315;140878;-76
2021/12/31 19:05:34;;;;;;;7.10;3.70;;;;;;;10.79;84.22;99411.72;207592;1317;142337;-77
2021/12/31 19:10:37;;;;;;;6.30;4.20;;;;;;;10.79;84.29;99416.67;206661;1315;141821;-75
2021/12/31 19:15:41;;;;;;;8.90;5.40;;;;;;;10.80;84.40;99407.89;207571;1316;143110;-74
2021/12/31 19:20:55;;;;;;;8.40;3.50;;;;;;;10.79;84.24;99402.29;207504;1313;141246;-74
2021/12/31 19:25:58;;;;;;;7.80;4.90;;;;;;;10.82;84.14;99403.23;207577;1316;143207;-75
2021/12/31 19:31:01;;;;;;;7.20;3.30;;;;;;;10.82;84.18;99403.29;207078;1318;140794;-74
2021/12/31 19:36:06;;;;;;;5.50;3.90;;;;;;;10.82;84.14;99404.23;207140;1318;142805;-69
2021/12/31 19:41:09;;;;;;;5.80;3.00;;;;;;;10.76;84.08;99407.73;207587;1316;140476;-74
2021/12/31 19:46:11;;;;;;;4.50;3.30;;;;;;;10.74;84.32;99412.34;208081;1316;141508;-76
2021/12/31 19:51:14;;;;;;;6.90;3.70;;;;;;;10.70;84.45;99413.14;207654;1315;140447;-76
2021/12/31 19:56:16;;;;;;;7.30;4.20;;;;;;;10.63;84.62;99420.71;207373;1316;140882;-78
2021/12/31 20:01:19;;;;;;;4.60;3.60;;;;;;;10.56;84.54;99425.80;207713;1315;141445;-74
2021/12/31 20:06:21;;;;;;;8.50;4.30;;;;;;;10.54;84.86;99430.61;207428;1317;141026;-76
2021/12/31 20:11:24;;;;;;;4.30;3.30;;;;;;;10.46;85.01;99431.82;207319;1317;141342;-77
2021/12/31 20:16:27;;;;;;;4.70;3.50;;;;;;;10.34;85.08;99436.59;207234;1315;142088;-75
2021/12/31 20:21:31;;;;;;;8.70;5.10;;;;;;;10.23;85.24;99427.97;206999;1316;141542;-72
2021/12/31 20:26:38;;;;;;;4.50;4.00;;;;;;;10.16;85.73;99431.54;208368;1318;141569;-73
2021/12/31 20:31:45;;;;;;;;;;;;;;;10.12;85.70;99429.81;209220;1319;141617;-71
2021/12/31 20:36:50;;;;;;;4.70;3.50;;;;;;;10.08;85.78;99427.25;209526;1316;126886;-74
2021/12/31 20:42:03;;;;;;;7.50;4.60;;;;;;;10.05;85.99;99429.70;208287;1316;140806;-74
2021/12/31 20:47:06;;;;;;;11.30;5.20;;;;;;;10.04;86.09;99429.10;208429;1315;140371;-73
2021/12/31 20:52:12;;;;;;;7.20;4.60;;;;;;;10.02;85.99;99430.66;207707;1316;141304;-72
2021/12/31 20:57:15;;;;;;;7.80;4.80;;;;;;;10.01;86.27;99431.80;207403;1313;140297;-71
2021/12/31 21:02:18;;;;;;;7.30;5.00;;;;;;;10.03;86.50;99434.77;208217;1316;141660;-77
2021/12/31 21:07:26;;;;;;;5.60;4.70;;;;;;;10.00;86.58;99432.42;207709;1318;140748;-77
2021/12/31 21:12:32;;;;;;;8.10;5.50;;;;;;;9.96;86.66;99432.46;208771;1315;140348;-74
2021/12/31 21:17:35;;;;;;;6.90;5.40;;;;;;;9.96;86.64;99433.58;207382;1316;140212;-72
2021/12/31 21:22:38;;;;;;;7.70;4.70;;;;;;;9.95;86.72;99434.52;207408;1315;140972;-74
2021/12/31 21:27:42;;;;;;;7.90;6.40;;;;;;;9.91;87.11;99440.08;208285;1316;140707;-74
2021/12/31 21:32:44;;;;;;;7.80;5.20;;;;;;;9.90;86.99;99436.70;206697;1316;141009;-70
2021/12/31 21:37:47;;;;;;;8.60;4.50;;;;;;;9.89;87.15;99437.90;206843;1316;140566;-74
2021/12/31 21:42:51;;;;;;;8.60;5.20;;;;;;;9.86;87.27;99442.63;207344;1315;163277;-76
2021/12/31 21:47:53;;;;;;;8.80;5.30;;;;;;;9.85;87.42;99446.77;207534;1318;139858;-74
2021/12/31 21:52:59;;;;;;;4.40;3.80;;;;;;;9.86;87.55;99448.23;207469;1318;838018;-78
2021/12/31 21:58:01;;;;;;;7.40;4.90;;;;;;;9.86;87.55;99447.80;207717;1316;140874;-68
2021/12/31 22:03:06;;;;;;;6.20;5.70;;;;;;;9.89;87.76;99446.54;208690;1316;141661;-73
2021/12/31 22:08:14;;;;;;;5.00;4.40;;;;;;;9.89;87.66;99449.98;207162;1318;141457;-73
2021/12/31 22:13:18;;;;;;;6.30;5.30;;;;;;;9.87;87.66;99448.84;206993;1317;142176;-70
2021/12/31 22:18:21;;;;;;;5.60;5.00;;;;;;;9.88;87.70;99454.23;206960;1317;140931;-70
2021/12/31 22:23:27;;;;;;;5.00;3.80;;;;;;;9.88;87.83;99457.59;207264;1316;153151;-72
2021/12/31 22:28:34;;;;;;;7.20;6.50;;;;;;;9.85;87.85;99460.83;208184;1316;142260;-77
2021/12/31 22:33:36;;;;;;;5.40;4.90;;;;;;;9.89;87.99;99463.38;207118;1316;141165;-70
2021/12/31 22:39:02;;;;;;;6.10;5.20;;;;;;;9.93;87.99;99467.80;209221;1316;140711;-70
2021/12/31 22:44:06;;;;;;;5.60;4.30;;;;;;;9.96;87.83;99473.84;208948;1315;141203;-73
2021/12/31 22:49:14;;;;;;;6.60;5.90;;;;;;;9.95;87.82;99478.40;209403;1317;140784;-75
2021/12/31 22:54:19;;;;;;;4.70;4.20;;;;;;;9.96;87.86;99486.76;208220;1322;140977;-75
2021/12/31 22:59:27;;;;;;;5.30;4.80;;;;;;;10.03;88.03;99487.46;207230;1316;142109;-71
2021/12/31 23:04:33;;;;;;;7.20;6.00;;;;;;;10.10;88.06;99495.56;207688;1316;140898;-70
2021/12/31 23:09:36;;;;;;;13.40;9.70;;;;;;;10.12;88.10;99491.92;207994;1315;139870;-70
2021/12/31 23:14:40;;;;;;;12.90;10.60;;;;;;;10.10;88.01;99492.38;207432;1317;141654;-67
2021/12/31 23:19:51;;;;;;;9.60;8.40;;;;;;;10.08;88.00;99496.18;208106;1316;141918;-75
2021/12/31 23:24:57;;;;;;;7.20;6.60;;;;;;;10.09;88.13;99492.73;207769;1315;140929;-76
2021/12/31 23:30:03;;;;;;;6.20;5.40;;;;;;;10.07;88.02;99492.11;206841;1318;140729;-75
2021/12/31 23:35:10;;;;;;;4.80;4.40;;;;;;;10.05;88.00;99486.86;207149;1318;142745;-69
2021/12/31 23:40:13;;;;;;;6.70;4.70;;;;;;;10.03;88.02;99485.17;206619;1318;141460;-72
2021/12/31 23:45:19;;;;;;;5.50;4.80;;;;;;;10.01;88.26;99496.36;207390;1315;141481;-69